Time;durP1;ratioP1;P1;durP2;ratioP2;P2;SDS_P1;SDS_P2;PMS_P1;PMS_P2;Temp;Humidity;BMP_temperature;BMP_pressure;BME280_temperature;BME280_humidity;BME280_pressure;Samples;Min_cycle;Max_cycle;Signal;HPM_P1;HPM_P2
2024/02/11 00:02:05;;;;;;;20.80;15.85;;;;;;;12.62;59.92;92348.09;6214296;23;20028;-86
2024/02/11 00:04:34;;;;;;;21.58;16.33;;;;;;;12.67;60.10;92350.69;6188037;23;20100;-87
2024/02/11 00:07:03;;;;;;;20.33;15.88;;;;;;;12.51;60.35;92352.50;6213532;23;20091;-86
2024/02/11 00:09:28;;;;;;;23.35;17.17;;;;;;;12.69;60.23;92379.09;6189433;23;20016;-86
2024/02/11 00:11:56;;;;;;;20.02;14.13;;;;;;;12.58;59.92;92385.34;6156617;23;20041;-87
2024/02/11 00:14:27;;;;;;;8.63;6.07;;;;;;;12.20;59.00;92403.00;6213353;23;20021;-86
2024/02/11 00:16:59;;;;;;;7.35;5.43;;;;;;;11.82;59.49;92399.69;6188629;23;20016;-87
2024/02/11 00:24:31;;;;;;;6.00;3.78;;;;;;;11.22;60.43;92436.34;6244642;22;20028;-86
2024/02/11 00:31:57;;;;;;;3.63;2.20;;;;;;;10.76;61.09;92465.34;6244159;22;20016;-86
2024/02/11 00:34:22;;;;;;;2.58;2.03;;;;;;;10.80;60.69;92473.44;6218785;23;20023;-87
2024/02/11 00:36:49;;;;;;;1.40;1.20;;;;;;;10.76;59.73;92478.34;6193614;23;20016;-86
2024/02/11 00:39:17;;;;;;;1.00;0.90;;;;;;;10.69;60.14;92495.19;6194224;23;20012;-87
2024/02/11 00:41:42;;;;;;;0.80;0.70;;;;;;;10.35;60.52;92496.09;6219799;23;20008;-86
2024/02/11 00:54:18;;;;;;;1.50;1.13;;;;;;;10.21;61.81;92538.28;6243611;22;20086;-88
2024/02/11 00:56:44;;;;;;;1.70;0.93;;;;;;;9.98;62.08;92547.84;6193052;23;20008;-86
2024/02/11 00:59:10;;;;;;;1.50;0.98;;;;;;;9.78;62.70;92554.31;6192993;23;20008;-87
2024/02/11 01:01:40;;;;;;;0.88;0.70;;;;;;;9.98;61.71;92563.41;6194176;23;20008;-86
2024/02/11 01:09:16;;;;;;;0.80;0.60;;;;;;;9.62;61.92;92588.06;6214161;23;20024;-86
2024/02/11 01:11:42;;;;;;;0.50;0.50;;;;;;;9.74;61.66;92593.97;6163469;23;20009;-86
2024/02/11 01:14:07;;;;;;;0.88;0.60;;;;;;;9.37;63.23;92602.22;6188358;23;20015;-87
2024/02/11 01:16:33;;;;;;;0.95;0.50;;;;;;;9.50;62.37;92609.69;6139010;23;20013;-86
2024/02/11 01:19:00;;;;;;;0.40;0.40;;;;;;;9.49;61.49;92608.09;6162599;23;20051;-86
2024/02/11 01:21:26;;;;;;;0.40;0.40;;;;;;;9.47;62.40;92620.53;6184440;23;20013;-86
2024/02/11 01:23:51;;;;;;;0.70;0.43;;;;;;;9.39;62.39;92615.72;6218081;23;20016;-86
2024/02/11 01:26:17;;;;;;;0.55;0.40;;;;;;;9.53;61.69;92614.41;6218167;23;20004;-86
2024/02/11 01:28:46;;;;;;;0.60;0.50;;;;;;;9.48;62.06;92624.72;6218413;23;20008;-86
2024/02/11 01:31:12;;;;;;;0.50;0.38;;;;;;;9.44;61.90;92628.75;6168408;23;20020;-87
2024/02/11 01:33:37;;;;;;;0.75;0.60;;;;;;;9.25;62.47;92630.78;6192272;23;20004;-85
2024/02/11 01:36:03;;;;;;;0.50;0.50;;;;;;;9.44;62.14;92639.16;6217787;23;20034;-87
2024/02/11 01:38:28;;;;;;;0.90;0.50;;;;;;;9.27;62.25;92631.34;6217872;23;20000;-86
2024/02/11 01:43:29;;;;;;;0.60;0.60;;;;;;;9.16;63.25;92647.75;6213600;23;20028;-87
2024/02/11 01:45:57;;;;;;;0.80;0.70;;;;;;;9.30;61.17;92638.66;6163111;23;20013;-87
2024/02/11 01:50:58;;;;;;;1.10;1.00;;;;;;;9.02;61.75;92656.81;6213617;23;20020;-87
2024/02/11 01:53:29;;;;;;;1.40;1.23;;;;;;;8.81;61.89;92656.41;6218015;23;20005;-87
2024/02/11 01:55:55;;;;;;;3.08;1.38;;;;;;;8.65;62.01;92647.56;6217988;23;20007;-86
2024/02/11 01:58:21;;;;;;;1.50;1.40;;;;;;;8.58;62.41;92663.22;6243179;23;20080;-87
2024/02/11 02:00:48;;;;;;;1.83;1.70;;;;;;;8.65;61.90;92678.66;6192544;23;20007;-86
2024/02/11 02:03:14;;;;;;;1.85;1.70;;;;;;;8.64;61.70;92677.06;6167974;23;20027;-86
2024/02/11 02:05:39;;;;;;;2.10;1.90;;;;;;;8.77;60.94;92678.63;6217657;23;20008;-87
2024/02/11 02:08:08;;;;;;;2.30;2.10;;;;;;;8.65;60.57;92673.47;6218308;23;20020;-86
2024/02/11 02:10:36;;;;;;;2.28;1.98;;;;;;;8.55;61.54;92679.22;6192900;23;20103;-86
2024/02/11 02:15:37;;;;;;;2.40;2.20;;;;;;;8.69;61.30;92684.16;6223124;23;20024;-86
2024/02/11 02:18:02;;;;;;;2.20;2.00;;;;;;;8.70;60.57;92698.69;6167164;23;20018;-87
2024/02/11 02:20:28;;;;;;;2.20;2.00;;;;;;;8.79;60.13;92685.16;6167627;23;19997;-87
2024/02/11 02:22:54;;;;;;;2.38;2.17;;;;;;;8.73;59.97;92690.47;6217542;23;20062;-87
2024/02/11 02:25:19;;;;;;;2.72;2.38;;;;;;;8.37;61.94;92687.09;6192488;23;20019;-86
2024/02/11 02:30:11;;;;;;;2.85;2.50;;;;;;;8.58;60.80;92693.53;6216496;23;20069;-86
2024/02/11 02:32:36;;;;;;;2.40;2.15;;;;;;;8.83;59.79;92695.06;6217868;23;20043;-87
2024/02/11 02:35:03;;;;;;;2.78;2.58;;;;;;;8.91;59.86;92690.31;6217714;23;20079;-86
2024/02/11 02:40:03;;;;;;;2.60;2.40;;;;;;;8.57;60.85;92694.56;6243295;23;20058;-87
2024/02/11 02:42:29;;;;;;;2.92;2.63;;;;;;;8.70;60.50;92696.09;6217976;23;20061;-87
2024/02/11 02:44:54;;;;;;;2.80;2.50;;;;;;;8.43;61.33;92700.97;6217800;23;20007;-87
2024/02/11 02:47:22;;;;;;;3.70;2.88;;;;;;;8.61;60.96;92691.28;6192635;23;20016;-87
2024/02/11 02:49:47;;;;;;;3.35;2.97;;;;;;;8.70;60.66;92691.72;6217987;23;20008;-86
2024/02/11 02:52:14;;;;;;;3.08;2.78;;;;;;;8.63;60.86;92691.06;6217432;23;20027;-87
2024/02/11 02:54:43;;;;;;;3.70;3.05;;;;;;;8.72;60.83;92694.06;6217858;23;20004;-87
2024/02/11 02:57:10;;;;;;;3.38;2.90;;;;;;;8.79;60.03;92682.56;6218693;23;20138;-87
2024/02/11 03:02:03;;;;;;;3.20;2.90;;;;;;;8.76;60.22;92690.03;6199839;23;20035;-86
2024/02/11 03:04:28;;;;;;;3.22;2.90;;;;;;;8.37;61.93;92687.88;6187232;23;20005;-87
2024/02/11 03:06:57;;;;;;;3.92;3.03;;;;;;;8.59;61.46;92702.88;6212747;23;20127;-86
2024/02/11 03:09:24;;;;;;;4.10;3.65;;;;;;;8.71;60.56;92697.69;6187800;23;20095;-88
2024/02/11 03:11:49;;;;;;;4.15;3.72;;;;;;;8.52;61.65;92697.81;6213194;23;20008;-87
2024/02/11 03:16:46;;;;;;;4.03;3.50;;;;;;;8.35;62.06;92681.34;6245032;22;20039;-87
2024/02/11 03:19:16;;;;;;;3.53;3.13;;;;;;;8.46;61.53;92701.31;6195036;23;20011;-87
2024/02/11 03:24:07;;;;;;;3.97;3.50;;;;;;;8.58;61.22;92699.47;6227536;22;20091;-87
2024/02/11 03:26:37;;;;;;;3.33;3.00;;;;;;;8.55;60.93;92689.59;6189578;23;20024;-87
2024/02/11 03:29:03;;;;;;;3.42;3.10;;;;;;;8.40;61.46;92691.84;6165625;23;20043;-87
2024/02/11 03:31:29;;;;;;;4.00;3.30;;;;;;;8.40;61.67;92697.00;6189353;23;20008;-87
2024/02/11 03:36:19;;;;;;;3.30;2.88;;;;;;;8.65;60.76;92708.97;6188995;23;20016;-87
2024/02/11 03:38:45;;;;;;;3.40;2.92;;;;;;;8.44;61.33;92713.69;6188757;23;20009;-87
2024/02/11 03:41:12;;;;;;;3.05;2.75;;;;;;;8.26;61.51;92700.81;6189168;23;20027;-87
2024/02/11 03:43:41;;;;;;;2.83;2.60;;;;;;;8.36;61.66;92719.19;6214870;23;20016;-87
2024/02/11 03:46:07;;;;;;;2.60;2.40;;;;;;;8.46;61.28;92716.06;6172552;23;20072;-87
2024/02/11 03:48:32;;;;;;;2.40;2.20;;;;;;;8.49;60.70;92713.81;6188190;23;20048;-86
2024/02/11 03:51:00;;;;;;;2.38;2.17;;;;;;;8.59;60.71;92708.06;6188456;23;20013;-86
2024/02/11 03:53:26;;;;;;;2.75;2.00;;;;;;;8.55;60.64;92728.47;6165037;23;20005;-87
2024/02/11 03:55:52;;;;;;;2.00;1.80;;;;;;;8.56;61.06;92721.47;6188250;23;20012;-87
2024/02/11 03:58:18;;;;;;;2.28;1.90;;;;;;;8.44;61.01;92711.13;6189044;23;20071;-88
2024/02/11 04:00:44;;;;;;;1.88;1.75;;;;;;;8.68;59.63;92724.84;6188489;23;20070;-86
2024/02/11 04:03:11;;;;;;;1.80;1.70;;;;;;;8.66;60.38;92728.66;6189101;23;20061;-86
2024/02/11 04:05:43;;;;;;;2.60;2.00;;;;;;;8.57;60.81;92723.06;6189141;23;20008;-87
2024/02/11 04:08:11;;;;;;;2.58;2.38;;;;;;;8.69;60.59;92730.81;6188811;23;20004;-86
2024/02/11 04:13:15;;;;;;;2.63;2.20;;;;;;;8.63;60.43;92739.50;6203594;23;20028;-87
2024/02/11 04:15:41;;;;;;;2.20;2.00;;;;;;;8.54;60.96;92739.81;6186778;23;20024;-87
2024/02/11 04:20:43;;;;;;;2.55;2.30;;;;;;;8.32;61.10;92721.44;6090769;23;2619415;-87
2024/02/11 04:23:08;;;;;;;2.55;2.30;;;;;;;8.30;61.00;92740.78;6163357;23;20020;-86
2024/02/11 04:25:34;;;;;;;2.80;2.20;;;;;;;8.43;60.92;92732.84;6188459;23;20005;-87
2024/02/11 04:30:28;;;;;;;2.22;2.03;;;;;;;8.66;59.58;92726.06;6214131;23;20035;-86
2024/02/11 04:32:53;;;;;;;2.47;2.28;;;;;;;8.30;60.71;92733.03;6163888;23;20039;-87
2024/02/11 04:35:24;;;;;;;2.45;2.25;;;;;;;8.40;60.41;92728.88;6188627;23;20008;-87
2024/02/11 04:37:52;;;;;;;2.42;2.08;;;;;;;8.28;60.38;92735.06;6188774;23;20091;-87
2024/02/11 04:40:20;;;;;;;2.20;2.00;;;;;;;8.27;60.98;92736.09;6187914;23;20004;-87
2024/02/11 04:45:15;;;;;;;2.50;2.30;;;;;;;8.60;59.92;92749.31;6213530;23;20112;-87
2024/02/11 04:47:49;;;;;;;2.67;2.30;;;;;;;8.28;61.02;92735.06;6188154;23;20032;-86
2024/02/11 04:50:21;;;;;;;2.53;2.33;;;;;;;8.30;61.42;92744.19;6188462;23;20088;-86
2024/02/11 04:52:56;;;;;;;3.15;2.30;;;;;;;8.60;60.91;92746.72;6164576;23;20012;-86
2024/02/11 04:55:27;;;;;;;2.60;2.40;;;;;;;8.41;60.83;92740.00;6188269;23;20005;-87
2024/02/11 04:57:58;;;;;;;3.30;2.60;;;;;;;8.14;62.04;92742.25;6188475;23;20008;-86
2024/02/11 05:00:28;;;;;;;2.35;2.15;;;;;;;7.92;61.94;92734.22;6188662;23;20008;-86
2024/02/11 05:03:03;;;;;;;2.50;2.30;;;;;;;7.85;62.89;92746.47;6163640;23;20096;-85
2024/02/11 05:05:30;;;;;;;2.72;2.30;;;;;;;7.97;61.96;92744.69;6188239;23;20043;-86
2024/02/11 05:07:56;;;;;;;2.80;2.30;;;;;;;8.21;61.37;92756.66;6188473;23;20000;-86
2024/02/11 05:10:24;;;;;;;2.40;2.20;;;;;;;8.16;60.96;92759.13;6187958;23;20011;-86
2024/02/11 05:15:20;;;;;;;3.63;2.70;;;;;;;8.31;60.88;92763.88;6212551;23;20036;-86
2024/02/11 05:17:49;;;;;;;2.30;2.10;;;;;;;8.13;60.33;92761.38;6160419;23;20013;-87
2024/02/11 05:20:21;;;;;;;2.35;2.15;;;;;;;8.32;60.28;92767.25;6187899;23;20028;-87
2024/02/11 05:22:47;;;;;;;3.42;2.75;;;;;;;8.24;61.00;92768.38;6188287;23;19999;-87
2024/02/11 05:25:21;;;;;;;3.15;2.60;;;;;;;8.18;61.11;92764.88;6187976;23;20009;-87
2024/02/11 05:28:05;;;;;;;2.30;2.10;;;;;;;8.25;60.34;92780.31;6163920;23;20040;-87
2024/02/11 05:30:34;;;;;;;2.92;2.60;;;;;;;8.34;60.97;92778.19;6213126;23;20001;-87
2024/02/11 05:33:04;;;;;;;2.50;2.30;;;;;;;8.44;59.84;92775.88;6139274;23;20124;-86
2024/02/11 05:35:34;;;;;;;2.63;2.40;;;;;;;8.17;60.24;92776.25;6188571;23;20008;-87
2024/02/11 05:38:05;;;;;;;2.53;2.30;;;;;;;8.34;60.10;92775.59;6163760;23;20076;-87
2024/02/11 05:40:32;;;;;;;2.28;2.08;;;;;;;8.41;59.51;92778.88;6187828;23;20013;-87
2024/02/11 05:42:59;;;;;;;3.80;2.42;;;;;;;8.23;60.91;92788.31;6185150;22;20035;-87
2024/02/11 05:45:25;;;;;;;2.75;2.40;;;;;;;8.03;61.50;92783.44;6158384;23;20028;-87
2024/02/11 05:47:51;;;;;;;3.72;2.55;;;;;;;8.13;61.63;92788.06;6158611;23;20072;-87
2024/02/11 05:50:18;;;;;;;2.70;2.30;;;;;;;8.04;61.71;92779.03;6163172;23;20005;-87
2024/02/11 05:52:46;;;;;;;3.03;2.72;;;;;;;8.01;61.95;92776.88;6187983;23;20000;-87
2024/02/11 05:55:16;;;;;;;3.33;3.00;;;;;;;7.60;62.39;92784.41;6213348;23;20094;-87
2024/02/11 05:57:45;;;;;;;3.35;2.92;;;;;;;7.83;62.65;92799.22;6188132;23;20005;-87
2024/02/11 06:02:42;;;;;;;3.90;3.25;;;;;;;8.08;61.79;92793.13;6212245;23;20021;-86
2024/02/11 06:05:12;;;;;;;3.67;3.17;;;;;;;8.23;61.48;92790.13;6163296;23;20074;-87
2024/02/11 06:07:42;;;;;;;3.83;3.40;;;;;;;8.24;61.54;92802.03;6186890;23;20035;-87
2024/02/11 06:10:11;;;;;;;3.30;3.00;;;;;;;8.26;61.34;92802.59;6164076;23;20011;-87
2024/02/11 06:12:37;;;;;;;3.45;3.10;;;;;;;8.08;61.98;92807.88;6187785;23;20004;-87
2024/02/11 06:15:04;;;;;;;4.00;3.40;;;;;;;8.18;61.17;92803.72;6187860;23;20146;-87
2024/02/11 06:17:33;;;;;;;3.70;3.28;;;;;;;8.13;61.56;92806.19;6187370;23;20019;-87
2024/02/11 06:22:25;;;;;;;3.78;3.00;;;;;;;8.36;60.61;92797.69;6211472;23;20080;-87
2024/02/11 06:24:52;;;;;;;3.85;3.13;;;;;;;8.08;61.27;92792.34;6160648;23;20035;-86
2024/02/11 06:27:18;;;;;;;3.50;2.95;;;;;;;8.29;61.40;92804.75;6187552;23;20087;-87
2024/02/11 06:29:44;;;;;;;3.97;3.20;;;;;;;8.37;61.01;92807.00;6167798;23;20032;-87
2024/02/11 06:32:10;;;;;;;3.97;2.95;;;;;;;8.15;61.86;92814.53;6201408;23;20009;-86
2024/02/11 06:39:41;;;;;;;3.60;3.22;;;;;;;8.09;61.90;92828.38;6210771;23;20039;-87
2024/02/11 06:42:09;;;;;;;4.07;3.47;;;;;;;8.19;61.48;92818.25;6188041;23;20005;-87
2024/02/11 06:44:39;;;;;;;4.20;3.40;;;;;;;8.25;61.32;92828.75;6163643;23;20019;-87
2024/02/11 06:47:08;;;;;;;7.38;3.67;;;;;;;8.53;61.07;92826.34;6187654;23;20031;-87
2024/02/11 06:49:36;;;;;;;6.80;3.83;;;;;;;8.53;60.97;92834.13;6187483;23;20134;-87
2024/02/11 06:54:38;;;;;;;4.82;3.85;;;;;;;8.35;61.78;92834.94;6215523;22;20020;-87
2024/02/11 06:57:10;;;;;;;5.22;3.95;;;;;;;8.44;61.30;92832.84;6162651;23;20036;-86
2024/02/11 06:59:38;;;;;;;5.95;4.10;;;;;;;8.49;61.18;92837.34;6164757;23;20012;-87
2024/02/11 07:02:05;;;;;;;5.72;3.80;;;;;;;8.69;60.48;92837.84;6189146;23;20000;-86
2024/02/11 07:04:34;;;;;;;5.47;3.90;;;;;;;8.61;60.92;92833.78;6153760;23;20044;-86
2024/02/11 07:07:03;;;;;;;4.20;3.40;;;;;;;8.56;61.43;92844.00;6159514;23;20088;-87
2024/02/11 07:09:29;;;;;;;4.25;3.28;;;;;;;8.40;61.39;92831.69;6135552;23;20017;-86
2024/02/11 07:11:59;;;;;;;4.82;3.08;;;;;;;8.61;60.79;92848.53;6135524;23;20009;-86
2024/02/11 07:24:37;;;;;;;4.60;3.42;;;;;;;8.84;60.10;92858.16;6189442;23;20009;-86
2024/02/11 07:27:06;;;;;;;4.93;3.85;;;;;;;8.76;60.53;92871.44;6214776;23;20082;-87
2024/02/11 07:29:33;;;;;;;4.50;3.60;;;;;;;8.94;60.18;92879.09;6214377;23;20005;-87
2024/02/11 07:31:59;;;;;;;3.92;3.33;;;;;;;8.81;60.71;92871.53;6218499;23;20054;-86
2024/02/11 07:34:26;;;;;;;4.57;3.50;;;;;;;8.86;60.24;92879.44;6218913;23;20004;-86
2024/02/11 07:36:52;;;;;;;4.47;3.08;;;;;;;8.80;60.42;92877.75;6218823;23;20004;-87
2024/02/11 07:39:18;;;;;;;4.93;3.53;;;;;;;8.81;60.99;92879.31;6218944;23;20007;-86
2024/02/11 07:41:44;;;;;;;3.47;2.83;;;;;;;8.67;61.82;92888.31;6219674;23;20012;-86
2024/02/11 07:46:44;;;;;;;5.80;4.05;;;;;;;8.72;61.57;92883.25;6241252;22;20046;-87
2024/02/11 07:49:13;;;;;;;7.20;4.72;;;;;;;8.87;60.99;92885.41;6219484;23;20012;-87
2024/02/11 07:51:44;;;;;;;6.13;4.28;;;;;;;8.92;60.18;92896.69;6219529;23;20012;-87
2024/02/11 07:54:04;;;;;;;7.68;4.60;;;;;;;8.70;60.93;92893.84;6218621;22;20020;-86
2024/02/11 07:56:30;;;;;;;4.78;3.58;;;;;;;8.83;59.77;92884.28;6163794;23;20015;-87
2024/02/11 08:01:23;;;;;;;4.80;3.40;;;;;;;8.48;61.38;92888.38;6178488;23;20037;-86
2024/02/11 08:03:48;;;;;;;4.00;3.00;;;;;;;8.63;60.22;92900.16;6214223;23;20023;-87
2024/02/11 08:06:13;;;;;;;4.97;3.50;;;;;;;8.40;61.01;92894.66;6214183;23;20009;-86
2024/02/11 08:11:18;;;;;;;3.83;2.88;;;;;;;8.27;61.21;92907.78;6215086;22;20016;-87
2024/02/11 08:13:43;;;;;;;3.70;2.80;;;;;;;8.41;61.20;92916.16;6163690;23;20023;-86
2024/02/11 08:16:11;;;;;;;3.58;3.00;;;;;;;8.29;61.36;92917.94;6215439;22;20024;-86
2024/02/11 08:18:38;;;;;;;3.33;2.80;;;;;;;8.17;61.93;92908.31;6163966;23;20021;-86
2024/02/11 08:21:04;;;;;;;3.30;2.40;;;;;;;8.60;60.56;92924.69;6189046;23;20074;-86
2024/02/11 08:23:33;;;;;;;2.67;2.35;;;;;;;8.59;60.69;92912.75;6163836;23;20023;-87
2024/02/11 08:30:49;;;;;;;4.25;3.38;;;;;;;8.86;60.98;92918.31;6215088;23;20028;-86
2024/02/11 08:35:40;;;;;;;5.10;4.60;;;;;;;9.07;60.84;92921.41;6214042;23;20029;-87
2024/02/11 08:38:08;;;;;;;6.47;5.05;;;;;;;9.11;61.33;92923.31;6139642;23;20235;-87
2024/02/11 08:40:36;;;;;;;7.60;5.95;;;;;;;9.09;61.19;92927.94;6188186;23;20012;-87
2024/02/11 08:43:01;;;;;;;6.80;5.18;;;;;;;9.19;60.91;92925.59;6139995;23;19996;-87
2024/02/11 08:47:52;;;;;;;7.40;6.20;;;;;;;9.32;61.02;92932.34;6201309;23;20076;-88
2024/02/11 08:50:17;;;;;;;5.53;4.50;;;;;;;9.38;60.52;92941.81;6163668;23;20253;-88
2024/02/11 08:52:43;;;;;;;4.07;3.22;;;;;;;9.45;60.92;92939.09;6139169;23;20062;-87
2024/02/11 08:55:11;;;;;;;3.90;3.17;;;;;;;9.65;60.59;92945.75;6188160;23;20016;-86
2024/02/11 08:57:40;;;;;;;4.43;3.38;;;;;;;9.57;60.60;92950.25;6188686;23;20000;-87
2024/02/11 09:00:16;;;;;;;4.22;3.40;;;;;;;9.50;61.29;92941.00;6188434;23;20045;-87
2024/02/11 09:05:07;;;;;;;6.32;5.10;;;;;;;9.91;60.71;92954.84;6212788;23;20024;-87
2024/02/11 09:07:34;;;;;;;7.00;5.32;;;;;;;9.96;60.25;92953.16;6164013;23;20013;-86
2024/02/11 09:10:00;;;;;;;6.03;3.85;;;;;;;10.06;59.31;92954.38;6163655;23;20015;-87
2024/02/11 09:15:01;;;;;;;3.85;3.22;;;;;;;10.01;59.66;92959.47;6214058;23;20021;-87
2024/02/11 09:17:30;;;;;;;4.60;3.35;;;;;;;9.94;59.52;92957.00;6188391;23;20004;-87
2024/02/11 09:19:55;;;;;;;4.63;3.42;;;;;;;9.77;60.22;92960.28;6140086;23;20083;-87
2024/02/11 09:22:24;;;;;;;4.30;3.38;;;;;;;9.72;60.29;92962.78;6163528;23;20088;-86
2024/02/11 09:24:50;;;;;;;3.55;3.20;;;;;;;9.66;60.37;92970.69;6163278;23;20008;-87
2024/02/11 09:29:51;;;;;;;3.92;3.42;;;;;;;10.20;59.45;92970.50;6210943;23;20028;-86
2024/02/11 09:32:16;;;;;;;3.55;3.10;;;;;;;10.08;59.52;92984.28;6188055;23;20008;-86
2024/02/11 09:34:42;;;;;;;3.70;3.30;;;;;;;10.06;59.26;92973.34;6138718;23;20013;-87
2024/02/11 09:39:36;;;;;;;3.72;3.17;;;;;;;10.44;58.30;92974.63;6213351;23;20037;-86
2024/02/11 09:42:02;;;;;;;4.03;3.22;;;;;;;10.64;58.86;92984.63;6187803;23;20009;-88
2024/02/11 09:47:05;;;;;;;4.55;3.67;;;;;;;10.71;58.71;92979.25;6208192;23;20032;-87
2024/02/11 09:49:32;;;;;;;4.00;2.88;;;;;;;10.81;57.85;92974.22;6218043;23;20062;-87
2024/02/11 09:52:00;;;;;;;3.28;2.70;;;;;;;10.76;58.42;92981.97;6192409;23;20030;-87
2024/02/11 09:56:51;;;;;;;3.83;2.70;;;;;;;11.04;58.13;92993.34;6197409;23;20048;-87
2024/02/11 09:59:26;;;;;;;3.50;2.90;;;;;;;11.15;57.44;92979.47;6133369;23;20008;-87
2024/02/11 10:06:53;;;;;;;3.92;2.88;;;;;;;10.99;58.71;92990.69;6227443;22;20024;-87
2024/02/11 10:09:19;;;;;;;3.10;2.78;;;;;;;11.26;57.32;92990.84;6242540;23;20054;-87
2024/02/11 10:11:45;;;;;;;3.80;2.83;;;;;;;11.23;57.20;92997.31;6216734;23;20035;-87
2024/02/11 10:14:13;;;;;;;3.47;2.90;;;;;;;11.09;57.81;92996.03;6217966;23;20011;-87
2024/02/11 10:16:42;;;;;;;3.70;3.10;;;;;;;10.93;58.33;92989.81;6217266;23;20008;-87
2024/02/11 10:19:07;;;;;;;3.53;2.80;;;;;;;10.95;57.58;93005.97;6217147;23;20004;-87
2024/02/11 10:21:36;;;;;;;2.90;2.65;;;;;;;10.72;57.45;93002.44;6217628;23;20072;-87
2024/02/11 10:24:03;;;;;;;3.55;2.92;;;;;;;10.88;58.34;93013.09;6193873;23;20030;-87
2024/02/11 10:31:32;;;;;;;3.40;3.08;;;;;;;10.90;56.97;93014.44;6231668;22;20051;-87
2024/02/11 10:33:58;;;;;;;4.43;3.10;;;;;;;10.82;56.79;93012.22;6195971;23;20019;-86
2024/02/11 10:38:50;;;;;;;3.42;2.97;;;;;;;10.82;56.45;93012.22;6245348;22;20028;-87
2024/02/11 10:41:16;;;;;;;3.85;3.42;;;;;;;10.78;56.49;93021.53;6220838;23;20068;-86
2024/02/11 10:46:30;;;;;;;4.07;3.50;;;;;;;10.62;57.73;93024.84;6186800;23;20025;-87
2024/02/11 10:48:58;;;;;;;4.65;3.72;;;;;;;10.79;57.75;93030.88;6112017;23;20069;-88
2024/02/11 10:51:34;;;;;;;4.38;3.22;;;;;;;10.71;57.58;93026.06;6136933;23;20055;-86
2024/02/11 10:54:02;;;;;;;4.70;3.78;;;;;;;10.90;56.60;93024.06;6161473;23;19997;-87
2024/02/11 11:01:35;;;;;;;3.40;3.10;;;;;;;11.09;57.70;93029.84;6214613;23;20019;-87
2024/02/11 11:04:03;;;;;;;3.83;3.30;;;;;;;11.22;56.57;93029.56;6190761;23;20023;-88
2024/02/11 11:06:31;;;;;;;3.40;3.10;;;;;;;11.27;56.13;93026.25;6216121;23;20017;-86
2024/02/11 11:08:59;;;;;;;4.38;3.58;;;;;;;11.35;56.01;93021.44;6190884;23;20007;-86
2024/02/11 11:13:52;;;;;;;4.65;3.75;;;;;;;11.27;57.33;93032.25;6215936;23;20060;-86
2024/02/11 11:16:28;;;;;;;3.83;3.40;;;;;;;11.08;57.82;93029.06;6167391;23;20052;-86
2024/02/11 11:18:54;;;;;;;4.53;3.88;;;;;;;11.03;58.08;93038.59;6166729;23;20008;-87
2024/02/11 11:21:20;;;;;;;4.32;3.58;;;;;;;11.11;57.37;93020.00;6190769;23;20058;-87
2024/02/11 11:23:48;;;;;;;3.92;3.40;;;;;;;11.08;57.00;93029.06;6215573;23;20039;-87
2024/02/11 11:26:18;;;;;;;4.20;3.53;;;;;;;11.23;56.15;93033.75;6190097;23;20012;-86
2024/02/11 11:28:47;;;;;;;3.70;3.40;;;;;;;10.91;57.10;93031.63;6190155;23;20008;-86
2024/02/11 11:31:13;;;;;;;4.10;3.42;;;;;;;11.18;57.32;93035.47;6166273;23;20017;-86
2024/02/11 11:33:39;;;;;;;3.92;3.30;;;;;;;11.28;56.32;93023.41;6190539;23;19996;-87
2024/02/11 11:38:31;;;;;;;3.45;3.05;;;;;;;11.50;54.43;93023.50;6212401;23;20015;-86
2024/02/11 11:41:00;;;;;;;3.50;3.20;;;;;;;11.33;56.38;93022.72;6139187;23;20078;-86
2024/02/11 11:43:28;;;;;;;4.13;3.28;;;;;;;11.59;56.08;93031.69;6213946;23;19996;-86
2024/02/11 11:46:04;;;;;;;3.20;2.80;;;;;;;11.64;54.11;93029.19;6140358;23;20020;-87
2024/02/11 11:48:31;;;;;;;3.05;2.75;;;;;;;11.79;52.50;93022.63;6188534;23;20120;-87
2024/02/11 11:51:01;;;;;;;3.83;2.55;;;;;;;11.49;52.75;93021.13;6188887;23;20108;-86
2024/02/11 11:53:30;;;;;;;3.92;2.97;;;;;;;11.66;53.20;93021.13;6213606;23;20005;-86
2024/02/11 11:58:31;;;;;;;4.60;3.42;;;;;;;11.68;53.90;93027.69;6200445;23;20033;-88
2024/02/11 12:00:57;;;;;;;3.83;3.20;;;;;;;11.76;54.03;93036.13;6188364;23;20017;-87
2024/02/11 12:03:23;;;;;;;3.63;3.15;;;;;;;11.76;55.00;93031.69;6163698;23;20012;-86
2024/02/11 12:08:15;;;;;;;5.35;4.28;;;;;;;12.02;55.58;93045.91;6212771;23;20095;-86
2024/02/11 12:10:43;;;;;;;4.38;3.70;;;;;;;12.21;54.02;93027.41;6163915;23;20099;-87
2024/02/11 12:13:13;;;;;;;3.80;3.40;;;;;;;12.17;53.10;93045.34;6214118;23;20056;-86
2024/02/11 12:23:16;;;;;;;3.55;2.95;;;;;;;11.68;53.65;93032.88;6213664;23;20035;-86
2024/02/11 12:25:42;;;;;;;5.88;3.20;;;;;;;11.48;53.80;93045.56;6188433;23;20021;-86
2024/02/11 12:28:21;;;;;;;4.28;3.30;;;;;;;11.53;54.32;93035.25;6188640;23;20043;-87
2024/02/11 12:30:46;;;;;;;3.47;3.05;;;;;;;11.66;53.75;93027.13;6191386;23;20043;-86
2024/02/11 12:35:47;;;;;;;4.75;3.47;;;;;;;11.94;53.80;93043.72;6198401;23;20024;-87
2024/02/11 12:40:39;;;;;;;4.50;3.30;;;;;;;11.60;52.17;93027.31;6211745;22;20040;-86
2024/02/11 12:48:15;;;;;;;4.30;3.35;;;;;;;11.23;53.65;93025.94;6189765;23;20021;-87
2024/02/11 12:50:44;;;;;;;4.20;3.78;;;;;;;11.15;55.14;93036.72;6193463;23;20023;-87
2024/02/11 12:53:11;;;;;;;4.93;3.63;;;;;;;11.18;55.49;93035.47;6219102;23;20074;-86
2024/02/11 12:55:36;;;;;;;4.45;3.60;;;;;;;11.38;54.33;93038.41;6218138;23;20027;-87
2024/02/11 13:03:04;;;;;;;4.10;3.50;;;;;;;11.39;53.84;93026.97;6243716;22;20020;-86
2024/02/11 13:08:05;;;;;;;5.10;3.58;;;;;;;11.33;52.80;93020.91;6183622;23;20028;-86
2024/02/11 13:10:34;;;;;;;4.18;3.63;;;;;;;11.73;52.59;93032.19;6134067;23;20016;-86
2024/02/11 13:13:00;;;;;;;4.75;3.65;;;;;;;11.57;51.75;93023.34;6158381;23;20009;-87
2024/02/11 13:15:25;;;;;;;4.90;3.50;;;;;;;11.67;53.21;93026.13;6133902;23;20013;-87
2024/02/11 13:17:51;;;;;;;4.43;3.65;;;;;;;12.01;54.05;93026.06;6157537;23;20009;-86
2024/02/11 13:22:51;;;;;;;4.82;3.40;;;;;;;12.14;52.77;93022.34;6182778;23;20039;-86
2024/02/11 13:25:19;;;;;;;5.38;3.58;;;;;;;12.40;52.15;93020.06;6131786;23;20012;-86
2024/02/11 13:30:10;;;;;;;4.32;3.22;;;;;;;12.66;50.56;93021.13;6211994;23;20111;-87
2024/02/11 13:32:36;;;;;;;4.82;3.60;;;;;;;12.23;51.18;93026.13;6167433;23;20008;-86
2024/02/11 13:40:04;;;;;;;6.20;4.47;;;;;;;12.48;50.96;93022.25;6240892;22;20027;-88
2024/02/11 13:42:30;;;;;;;5.82;4.22;;;;;;;12.48;49.79;93017.81;6218057;23;20031;-86
2024/02/11 13:44:55;;;;;;;5.13;4.15;;;;;;;12.61;51.28;93027.09;6217717;23;20019;-86
2024/02/11 13:47:21;;;;;;;6.70;5.63;;;;;;;12.20;50.89;93016.16;6192547;23;20004;-87
2024/02/11 13:52:15;;;;;;;5.00;3.72;;;;;;;12.48;50.65;93027.47;6219571;22;20020;-86
2024/02/11 13:54:41;;;;;;;3.90;3.40;;;;;;;12.42;51.50;93026.63;6162614;23;20011;-87
2024/02/11 13:57:10;;;;;;;4.70;3.58;;;;;;;12.45;51.69;93030.53;6169416;23;20020;-86
2024/02/11 13:59:36;;;;;;;5.35;3.50;;;;;;;12.33;51.69;93030.66;6187487;23;20017;-88
2024/02/11 14:02:02;;;;;;;7.47;3.42;;;;;;;12.47;51.20;93026.69;6188040;23;20066;-86
2024/02/11 14:04:28;;;;;;;4.18;3.47;;;;;;;12.53;50.92;93035.34;6187678;23;20040;-87
2024/02/11 14:09:29;;;;;;;4.03;3.42;;;;;;;12.33;51.28;93036.66;6242777;23;20020;-87
2024/02/11 14:11:55;;;;;;;4.82;3.78;;;;;;;12.29;51.06;93022.53;6191540;23;20012;-86
2024/02/11 14:14:24;;;;;;;4.50;3.65;;;;;;;12.30;51.22;93033.78;6216888;23;20008;-87
2024/02/11 14:16:51;;;;;;;5.05;3.75;;;;;;;12.45;51.49;93010.50;6217776;23;20035;-86
2024/02/11 14:24:26;;;;;;;4.20;3.38;;;;;;;12.89;50.00;93031.31;6243663;23;20024;-86
2024/02/11 14:26:53;;;;;;;4.18;3.55;;;;;;;12.90;49.96;93026.88;6217493;23;20004;-87
2024/02/11 14:29:19;;;;;;;4.97;3.60;;;;;;;13.08;48.01;93031.00;6192061;23;20019;-86
2024/02/11 14:31:44;;;;;;;5.53;3.72;;;;;;;12.85;49.04;93038.06;6191842;23;20012;-86
2024/02/11 14:44:24;;;;;;;4.45;3.50;;;;;;;12.85;49.03;93045.09;6212866;22;20028;-87
2024/02/11 14:46:53;;;;;;;4.90;3.95;;;;;;;12.61;50.07;93044.56;6187618;23;20028;-87
2024/02/11 14:49:23;;;;;;;5.60;3.78;;;;;;;12.83;48.09;93052.38;6187251;23;20028;-86
2024/02/11 14:51:49;;;;;;;6.30;3.85;;;;;;;12.48;48.55;93051.72;6187050;23;20005;-87
2024/02/11 15:09:26;;;;;;;5.68;3.75;;;;;;;12.06;50.39;93054.81;6243151;23;20017;-86
2024/02/11 15:11:52;;;;;;;4.60;3.50;;;;;;;12.10;50.61;93062.94;6193091;23;20042;-87
2024/02/11 15:14:21;;;;;;;6.13;3.72;;;;;;;12.35;51.27;93066.94;6194491;23;20011;-88
2024/02/11 15:16:47;;;;;;;4.72;3.42;;;;;;;12.30;49.67;93062.44;6220246;23;20008;-87